Time;durP1;ratioP1;P1;durP2;ratioP2;P2;SDS_P1;SDS_P2;PMS_P1;PMS_P2;Temp;Humidity;BMP_temperature;BMP_pressure;BME280_temperature;BME280_humidity;BME280_pressure;Samples;Min_cycle;Max_cycle;Signal;HPM_P1;HPM_P2
2023/03/17 00:00:09;;;;;;;;;12.50;12.00;;;;;14.51;47.37;100226.09;5012759;28;45491;-68
2023/03/17 00:02:35;;;;;;;;;13.00;9.25;;;;;14.48;47.32;100226.22;4998700;28;46051;-68
2023/03/17 00:05:01;;;;;;;;;13.50;11.50;;;;;14.45;47.60;100223.69;5017627;28;45370;-68
2023/03/17 00:07:27;;;;;;;;;14.75;13.25;;;;;14.44;47.47;100227.25;5018655;28;45238;-68
2023/03/17 00:09:52;;;;;;;;;11.25;11.00;;;;;14.44;47.40;100235.19;5018328;28;45396;-67
2023/03/17 00:12:18;;;;;;;;;13.00;11.50;;;;;14.43;47.57;100244.03;5018521;28;45275;-67
2023/03/17 00:14:45;;;;;;;;;10.75;9.75;;;;;14.40;47.61;100233.56;5018421;28;45215;-68
2023/03/17 00:17:13;;;;;;;;;13.50;12.00;;;;;14.39;47.30;100229.19;5018357;28;45316;-68
2023/03/17 00:19:41;;;;;;;;;12.25;8.75;;;;;14.37;47.72;100231.06;5018205;28;45429;-68
2023/03/17 00:22:15;;;;;;;;;13.50;13.50;;;;;14.36;47.38;100238.09;5018001;28;45300;-68
2023/03/17 00:24:41;;;;;;;;;14.00;12.00;;;;;14.35;47.19;100241.69;5033610;28;45879;-68
2023/03/17 00:27:11;;;;;;;;;14.00;13.00;;;;;14.32;47.57;100240.94;5018256;28;45277;-68
2023/03/17 00:29:37;;;;;;;;;12.75;11.50;;;;;14.31;47.36;100245.34;5018471;28;45345;-67
2023/03/17 00:32:03;;;;;;;;;14.25;13.25;;;;;14.29;47.09;100244.56;5017706;28;46186;-67
2023/03/17 00:34:29;;;;;;;;;12.50;11.75;;;;;14.27;47.80;100243.75;5018219;28;45309;-67
2023/03/17 00:36:54;;;;;;;;;13.00;12.25;;;;;14.26;47.57;100248.19;5018176;28;45350;-68
2023/03/17 00:39:20;;;;;;;;;16.25;12.00;;;;;14.24;47.22;100238.59;5018202;28;45437;-68
2023/03/17 00:41:46;;;;;;;;;11.75;10.25;;;;;14.23;47.70;100242.16;5016727;28;46004;-67
2023/03/17 00:44:13;;;;;;;;;14.25;12.75;;;;;14.19;47.91;100245.81;5018160;28;45194;-68
2023/03/17 00:46:40;;;;;;;;;12.25;10.50;;;;;14.19;47.55;100251.97;5017911;28;45457;-68
2023/03/17 00:49:15;;;;;;;;;16.25;12.25;;;;;14.18;47.34;100249.38;5013830;28;45271;-67
2023/03/17 00:51:42;;;;;;;;;9.00;8.00;;;;;14.14;47.29;100248.63;5001059;28;47029;-67
2023/03/17 00:54:09;;;;;;;;;14.75;11.75;;;;;14.12;47.57;100240.78;5017810;28;45464;-68
2023/03/17 00:56:37;;;;;;;;;15.50;12.75;;;;;14.12;47.80;100250.47;5017840;28;45253;-67
2023/03/17 00:59:02;;;;;;;;;15.50;14.25;;;;;14.10;47.40;100245.25;5016592;28;45271;-68
2023/03/17 01:01:28;;;;;;;;;15.75;14.25;;;;;14.08;47.70;100247.06;5000740;28;45352;-68
2023/03/17 01:03:54;;;;;;;;;13.50;11.75;;;;;14.06;47.72;100241.00;5008291;28;45397;-68
2023/03/17 01:06:20;;;;;;;;;13.75;12.50;;;;;14.07;48.06;100252.41;5017861;28;45741;-68
2023/03/17 01:08:45;;;;;;;;;11.25;11.25;;;;;14.03;47.55;100245.53;5017815;28;45556;-67
2023/03/17 01:11:20;;;;;;;;;15.00;11.00;;;;;14.01;47.58;100248.19;5016245;28;45970;-67
2023/03/17 01:13:45;;;;;;;;;14.25;13.25;;;;;14.00;47.83;100248.25;5017631;28;45313;-67
2023/03/17 01:16:11;;;;;;;;;15.00;13.00;;;;;13.96;47.96;100245.75;5017400;28;45339;-67
2023/03/17 01:18:38;;;;;;;;;10.75;10.75;;;;;13.97;48.03;100250.13;5015428;28;45310;-68
2023/03/17 01:21:04;;;;;;;;;14.25;13.00;;;;;13.96;47.53;100251.03;5017244;28;45359;-67
2023/03/17 01:23:30;;;;;;;;;12.25;10.75;;;;;13.95;47.93;100251.09;5032909;28;45272;-68
2023/03/17 01:25:56;;;;;;;;;13.00;10.75;;;;;13.92;47.79;100245.91;5016202;28;45268;-67
2023/03/17 01:28:22;;;;;;;;;12.00;12.00;;;;;13.91;47.63;100249.47;5017473;28;45223;-68
2023/03/17 01:30:48;;;;;;;;;11.75;11.50;;;;;13.88;47.64;100253.06;5016915;28;46245;-68
2023/03/17 01:33:13;;;;;;;;;12.50;11.00;;;;;13.89;48.06;100262.72;5017405;28;45233;-68
2023/03/17 01:35:40;;;;;;;;;14.75;14.75;;;;;13.88;47.93;100249.59;5017445;28;45199;-67
2023/03/17 01:38:07;;;;;;;;;11.50;10.25;;;;;13.86;48.02;100243.47;5017584;28;45358;-68
2023/03/17 01:40:41;;;;;;;;;10.00;9.25;;;;;13.85;47.98;100253.19;5016859;28;46320;-68
2023/03/17 01:43:09;;;;;;;;;10.75;9.00;;;;;13.84;48.40;100255.91;5017365;28;45490;-68
2023/03/17 01:46:12;;;;;;;;;11.75;11.25;;;;;13.81;47.87;100252.44;5017077;28;45285;-67
2023/03/17 01:48:59;;;;;;;;;12.25;12.25;;;;;13.79;47.99;100243.69;5016837;28;45594;-67
2023/03/17 01:51:49;;;;;;;;;12.75;11.25;;;;;13.76;47.94;100233.25;4992632;28;46404;-67
2023/03/17 01:54:33;;;;;;;;;13.00;11.75;;;;;13.76;47.89;100233.25;5016986;28;45373;-67
2023/03/17 01:57:20;;;;;;;;;14.75;14.75;;;;;13.74;47.88;100229.78;5017349;28;45161;-67
2023/03/17 01:59:50;;;;;;;;;16.50;14.25;;;;;13.72;47.92;100230.75;5015822;28;45712;-67
2023/03/17 02:02:22;;;;;;;;;15.75;12.75;;;;;13.70;48.10;100222.91;5003366;28;46210;-67
2023/03/17 02:04:51;;;;;;;;;10.00;9.25;;;;;13.71;47.81;100223.75;5020868;28;45271;-67
2023/03/17 02:07:19;;;;;;;;;16.00;14.00;;;;;13.71;48.17;100226.41;5023579;28;45239;-67
2023/03/17 02:09:45;;;;;;;;;16.50;14.00;;;;;13.69;47.86;100223.81;5021921;28;45519;-67
2023/03/17 02:12:12;;;;;;;;;14.00;12.50;;;;;13.68;48.15;100223.88;5022176;28;47674;-67
2023/03/17 02:14:37;;;;;;;;;13.50;11.25;;;;;13.66;48.29;100221.31;5023460;28;45309;-68
2023/03/17 02:17:03;;;;;;;;;12.75;11.75;;;;;13.63;47.89;100224.03;5038686;28;45392;-68
2023/03/17 02:19:29;;;;;;;;;12.75;11.75;;;;;13.60;47.89;100218.88;5023290;28;45317;-67
2023/03/17 02:21:58;;;;;;;;;12.00;12.00;;;;;13.62;48.18;100225.81;5023318;28;46232;-67
2023/03/17 02:24:32;;;;;;;;;11.50;10.00;;;;;13.61;48.34;100223.22;5023092;28;45284;-67
2023/03/17 02:27:04;;;;;;;;;15.25;14.50;;;;;13.59;48.26;100220.63;5022153;28;45190;-67
2023/03/17 02:29:32;;;;;;;;;10.75;10.75;;;;;13.58;48.10;100213.63;5023205;28;45229;-67
2023/03/17 02:31:58;;;;;;;;;12.50;11.25;;;;;13.56;48.10;100223.41;5023620;28;46196;-67
2023/03/17 02:34:23;;;;;;;;;12.25;12.00;;;;;13.55;48.38;100221.66;5023271;28;45124;-67
2023/03/17 02:36:48;;;;;;;;;11.50;11.50;;;;;13.55;48.32;100218.19;5023262;28;45471;-68
2023/03/17 02:39:14;;;;;;;;;13.00;12.00;;;;;13.55;48.07;100215.53;5023195;28;45629;-68
2023/03/17 02:41:40;;;;;;;;;10.75;10.75;;;;;13.53;48.34;100209.44;5038175;28;46672;-68
2023/03/17 02:44:06;;;;;;;;;13.00;11.50;;;;;13.51;48.14;100217.41;5023190;28;45329;-68
2023/03/17 02:46:31;;;;;;;;;12.00;11.25;;;;;13.52;48.33;100223.53;5022768;28;45304;-68
2023/03/17 02:48:57;;;;;;;;;13.50;12.25;;;;;13.51;47.94;100212.13;5018867;28;45478;-68
2023/03/17 02:51:22;;;;;;;;;10.00;7.75;;;;;13.50;48.42;100215.69;5003447;28;46628;-68
2023/03/17 02:53:48;;;;;;;;;14.50;12.75;;;;;13.48;48.42;100218.38;5023098;28;45404;-67
2023/03/17 02:56:14;;;;;;;;;10.75;5.75;;;;;13.46;48.53;100216.72;5022747;28;45254;-68
2023/03/17 02:58:40;;;;;;;;;12.25;10.00;;;;;13.45;48.26;100202.63;5022273;28;45539;-68
2023/03/17 03:01:05;;;;;;;;;10.00;10.00;;;;;13.46;48.45;100203.53;5008785;28;45219;-68
2023/03/17 03:03:30;;;;;;;;;16.50;15.00;;;;;13.44;48.29;100192.13;5025074;28;45251;-68
2023/03/17 03:05:57;;;;;;;;;11.25;10.50;;;;;13.44;48.39;100198.25;5021759;28;45189;-68
2023/03/17 03:08:22;;;;;;;;;15.25;13.00;;;;;13.43;48.56;100199.22;5022602;28;45595;-68
2023/03/17 03:10:47;;;;;;;;;10.00;10.00;;;;;13.41;48.30;100195.75;5053567;28;47070;-68
2023/03/17 03:13:13;;;;;;;;;11.75;11.75;;;;;13.39;48.24;100186.16;5018453;28;45318;-67
2023/03/17 03:15:42;;;;;;;;;11.75;11.75;;;;;13.39;48.16;100183.53;5019240;28;45135;-67
2023/03/17 03:18:08;;;;;;;;;10.00;10.00;;;;;13.37;48.43;100177.38;5019236;28;45361;-67
2023/03/17 03:20:35;;;;;;;;;11.75;11.00;;;;;13.36;48.36;100171.28;5017551;28;46292;-67
2023/03/17 03:23:00;;;;;;;;;12.25;11.25;;;;;13.35;48.21;100173.97;5017715;28;45262;-68
2023/03/17 03:25:25;;;;;;;;;11.00;11.00;;;;;13.35;48.42;100179.25;5019015;28;45223;-68
2023/03/17 03:27:51;;;;;;;;;12.00;12.00;;;;;13.32;48.68;100190.78;5019949;28;45445;-68
2023/03/17 03:30:17;;;;;;;;;12.25;11.00;;;;;13.29;48.60;100183.78;5018665;28;46262;-68
2023/03/17 03:32:42;;;;;;;;;14.00;10.50;;;;;13.32;48.70;100201.31;5018825;28;45231;-68
2023/03/17 03:35:09;;;;;;;;;10.75;8.50;;;;;13.30;48.37;100192.59;5019060;28;45387;-68
2023/03/17 03:37:34;;;;;;;;;10.75;10.75;;;;;13.28;48.57;100189.13;5018816;28;45513;-67
2023/03/17 03:40:00;;;;;;;;;11.50;9.50;;;;;13.26;48.46;100190.97;5018560;28;45385;-68
2023/03/17 03:42:25;;;;;;;;;9.50;7.00;;;;;13.27;48.44;100204.09;5017611;28;45390;-68
2023/03/17 03:44:51;;;;;;;;;10.25;10.25;;;;;13.25;48.74;100211.19;5018902;28;45283;-68
2023/03/17 03:47:17;;;;;;;;;10.50;10.00;;;;;13.25;48.42;100208.56;5018497;28;45300;-68
2023/03/17 03:49:42;;;;;;;;;12.00;10.50;;;;;13.26;48.55;100220.00;5009838;28;45421;-68
2023/03/17 03:52:08;;;;;;;;;9.25;7.75;;;;;13.24;48.47;100206.84;5017488;28;45543;-68
2023/03/17 03:54:33;;;;;;;;;8.75;8.75;;;;;13.23;48.70;100201.63;5018715;28;45300;-68
2023/03/17 03:56:59;;;;;;;;;8.75;8.75;;;;;13.24;48.36;100208.63;5018677;28;45460;-68
2023/03/17 03:59:24;;;;;;;;;10.50;6.50;;;;;13.23;48.37;100210.41;5018480;28;46182;-67
2023/03/17 04:01:49;;;;;;;;;9.00;7.25;;;;;13.21;48.69;100203.47;4997512;28;45255;-68
2023/03/17 04:04:15;;;;;;;;;10.50;10.50;;;;;13.23;48.45;100197.22;5011657;28;54969;-68
2023/03/17 04:06:40;;;;;;;;;8.50;8.50;;;;;13.24;48.48;100201.56;5018568;28;45219;-68
2023/03/17 04:09:06;;;;;;;;;10.50;9.25;;;;;13.24;48.86;100208.63;5018255;28;45386;-67
2023/03/17 04:11:31;;;;;;;;;10.00;10.00;;;;;13.24;48.84;100212.13;5018100;28;45254;-67
2023/03/17 04:13:57;;;;;;;;;10.00;9.50;;;;;13.24;48.55;100204.19;5018495;28;45342;-67
2023/03/17 04:16:22;;;;;;;;;10.75;9.00;;;;;13.24;48.42;100209.47;5018138;28;45223;-68
2023/03/17 04:18:47;;;;;;;;;13.00;10.50;;;;;13.25;48.75;100210.34;5017034;28;46987;-68
2023/03/17 04:21:17;;;;;;;;;11.00;10.25;;;;;13.25;48.85;100205.94;5018265;28;45183;-69
2023/03/17 04:23:42;;;;;;;;;12.25;11.00;;;;;13.25;48.68;100211.19;5018172;28;45302;-67
2023/03/17 04:26:09;;;;;;;;;10.50;10.00;;;;;13.25;48.64;100216.47;5018103;28;45302;-68
2023/03/17 04:28:34;;;;;;;;;11.75;9.25;;;;;13.25;48.81;100215.63;5018179;28;46113;-68
2023/03/17 04:30:59;;;;;;;;;12.50;10.25;;;;;13.24;48.79;100209.47;5016322;28;53242;-68
2023/03/17 04:33:25;;;;;;;;;11.75;10.00;;;;;13.25;48.65;100205.94;5018264;28;45495;-68
2023/03/17 04:35:51;;;;;;;;;10.75;10.75;;;;;13.25;48.66;100203.28;5018096;28;45485;-68
2023/03/17 04:38:16;;;;;;;;;10.50;9.00;;;;;13.25;49.10;100197.16;5018097;28;45144;-68
2023/03/17 04:40:41;;;;;;;;;10.75;10.75;;;;;13.25;48.93;100197.16;5017795;28;45520;-67
2023/03/17 04:43:09;;;;;;;;;10.50;10.50;;;;;13.25;48.77;100195.38;5018292;28;45244;-67
2023/03/17 04:45:34;;;;;;;;;12.75;11.00;;;;;13.25;48.52;100192.72;5016504;28;45480;-68
2023/03/17 04:48:00;;;;;;;;;11.00;10.25;;;;;13.26;48.87;100201.53;5016337;28;45357;-68
2023/03/17 04:50:25;;;;;;;;;9.00;9.00;;;;;13.26;49.02;100202.38;5003177;28;45524;-68
2023/03/17 04:52:50;;;;;;;;;10.25;9.00;;;;;13.23;48.90;100205.13;5011325;28;45319;-68
2023/03/17 04:55:16;;;;;;;;;7.75;7.50;;;;;13.22;49.07;100199.88;5017866;28;45611;-67
2023/03/17 04:57:43;;;;;;;;;10.00;9.00;;;;;13.26;49.20;100206.81;5018064;28;45386;-68
2023/03/17 05:00:11;;;;;;;;;8.75;8.75;;;;;13.27;48.92;100208.50;5011735;28;45293;-68
2023/03/17 05:02:37;;;;;;;;;11.25;9.50;;;;;13.27;49.09;100211.16;4996894;28;45300;-68
2023/03/17 05:05:04;;;;;;;;;10.50;10.00;;;;;13.27;48.61;100216.41;5017671;28;45519;-68
2023/03/17 05:07:30;;;;;;;;;7.75;7.00;;;;;13.27;49.04;100204.09;5032899;28;46361;-68
2023/03/17 05:09:55;;;;;;;;;10.00;7.75;;;;;13.27;49.08;100212.03;5017404;28;45318;-68
2023/03/17 05:12:21;;;;;;;;;11.00;10.00;;;;;13.28;48.92;100215.50;5017860;28;45325;-68
2023/03/17 05:14:47;;;;;;;;;8.75;8.50;;;;;13.28;48.96;100218.16;5017532;28;45262;-68
2023/03/17 05:17:12;;;;;;;;;8.75;8.75;;;;;13.27;49.09;100204.09;5017633;28;45574;-68
2023/03/17 05:19:38;;;;;;;;;9.00;9.00;;;;;13.27;48.95;100209.38;5017478;28;45306;-68
2023/03/17 05:22:04;;;;;;;;;7.75;7.00;;;;;13.29;48.73;100214.59;5016406;28;45318;-68
2023/03/17 05:24:29;;;;;;;;;8.25;7.50;;;;;13.28;49.09;100212.88;5017591;28;45227;-67
2023/03/17 05:26:54;;;;;;;;;7.25;5.75;;;;;13.24;49.00;100213.91;5017537;28;50207;-68
2023/03/17 05:29:20;;;;;;;;;8.25;8.25;;;;;13.28;49.02;100219.03;5017236;28;45344;-68
2023/03/17 05:31:46;;;;;;;;;5.50;5.50;;;;;13.27;49.21;100201.47;5017467;28;45194;-67
2023/03/17 05:34:11;;;;;;;;;9.00;6.00;;;;;13.25;49.13;100205.06;5016499;28;45223;-68
2023/03/17 05:36:37;;;;;;;;;6.00;5.50;;;;;13.28;49.20;100211.13;5017210;28;45308;-68
2023/03/17 05:39:03;;;;;;;;;9.00;6.25;;;;;13.28;49.16;100211.13;5017010;28;45157;-68
2023/03/17 05:41:28;;;;;;;;;10.00;7.75;;;;;13.27;49.40;100211.16;5017388;28;45485;-68
2023/03/17 05:43:54;;;;;;;;;8.00;7.00;;;;;13.27;49.01;100204.09;5017256;28;45473;-68
2023/03/17 05:46:21;;;;;;;;;11.50;8.00;;;;;13.27;49.09;100205.88;5016993;28;47171;-68
2023/03/17 05:48:46;;;;;;;;;8.00;8.00;;;;;13.27;49.26;100203.22;5015723;28;45483;-68
2023/03/17 05:51:11;;;;;;;;;8.00;5.00;;;;;13.27;48.99;100190.91;4997336;28;45361;-68
2023/03/17 05:53:37;;;;;;;;;6.50;5.75;;;;;13.29;49.15;100206.69;5016240;28;45397;-68
2023/03/17 05:56:02;;;;;;;;;6.00;6.00;;;;;13.28;49.32;100203.19;5016917;28;46060;-68
2023/03/17 05:58:28;;;;;;;;;7.00;6.00;;;;;13.29;49.05;100204.91;5017009;28;45541;-68
2023/03/17 06:00:53;;;;;;;;;5.00;5.00;;;;;13.25;49.19;100202.44;5004759;28;45547;-68
2023/03/17 06:03:20;;;;;;;;;7.75;7.75;;;;;13.30;49.19;100211.06;5002133;28;45217;-68
2023/03/17 06:05:45;;;;;;;;;8.75;8.00;;;;;13.30;48.94;100225.09;5048360;28;46972;-68
2023/03/17 06:08:11;;;;;;;;;6.50;6.00;;;;;13.31;49.07;100212.78;5016711;28;45281;-68
2023/03/17 06:10:37;;;;;;;;;8.50;7.50;;;;;13.29;49.02;100207.53;5016817;28;45433;-68
2023/03/17 06:13:03;;;;;;;;;8.50;6.50;;;;;13.31;49.17;100213.63;5016863;28;45388;-68
2023/03/17 06:15:29;;;;;;;;;5.00;5.00;;;;;13.32;48.91;100210.09;5016604;28;45301;-68
2023/03/17 06:17:54;;;;;;;;;7.75;5.00;;;;;13.32;49.56;100214.53;5016559;28;45173;-68
2023/03/17 06:20:20;;;;;;;;;7.00;7.00;;;;;13.32;49.20;100218.00;5016825;28;45407;-68
2023/03/17 06:22:46;;;;;;;;;8.00;8.00;;;;;13.33;49.40;100221.50;5031904;28;45342;-68
2023/03/17 06:25:11;;;;;;;;;7.00;7.00;;;;;13.32;49.49;100214.53;5016479;28;45717;-68
2023/03/17 06:27:37;;;;;;;;;10.50;6.75;;;;;13.33;49.13;100217.09;5016470;28;45281;-68
2023/03/17 06:30:07;;;;;;;;;7.75;7.00;;;;;13.33;49.17;100225.00;5016511;28;45381;-68
2023/03/17 06:32:33;;;;;;;;;8.25;7.00;;;;;13.30;49.45;100222.47;5016317;28;45191;-68
2023/03/17 06:34:58;;;;;;;;;8.25;8.00;;;;;13.32;49.57;100223.28;5016336;28;45362;-67
2023/03/17 06:37:24;;;;;;;;;6.50;5.50;;;;;13.32;49.46;100212.72;5015165;28;45259;-68
2023/03/17 06:39:49;;;;;;;;;7.00;5.75;;;;;13.31;49.19;100213.63;5016457;28;45771;-68
2023/03/17 06:42:14;;;;;;;;;9.25;6.75;;;;;13.30;49.29;100211.91;5016302;28;45470;-66
2023/03/17 06:44:40;;;;;;;;;7.00;6.00;;;;;13.28;49.49;100212.88;5016479;28;45427;-68
2023/03/17 06:47:06;;;;;;;;;7.00;7.00;;;;;13.30;49.12;100219.81;5018141;28;45539;-68
2023/03/17 06:49:31;;;;;;;;;9.00;6.25;;;;;13.30;49.46;100217.19;5012191;28;45287;-68
2023/03/17 06:51:57;;;;;;;;;9.50;7.50;;;;;13.30;49.08;100216.34;5005118;28;45443;-68
2023/03/17 06:54:24;;;;;;;;;8.00;7.50;;;;;13.30;49.54;100225.09;5019504;28;46087;-68
2023/03/17 06:56:50;;;;;;;;;9.00;7.75;;;;;13.31;49.19;100239.19;5034556;28;45313;-68
2023/03/17 06:59:15;;;;;;;;;18.25;14.25;;;;;13.32;49.29;100228.56;5019357;28;45336;-68
2023/03/17 07:01:41;;;;;;;;;7.75;7.75;;;;;13.31;49.27;100226.84;5000383;28;45291;-68
2023/03/17 07:04:06;;;;;;;;;7.00;7.00;;;;;13.34;49.45;100236.41;5010558;28;46283;-68
2023/03/17 07:06:32;;;;;;;;;7.50;7.25;;;;;13.32;49.35;100241.75;5019097;28;45185;-68
2023/03/17 07:08:57;;;;;;;;;7.00;7.00;;;;;13.34;49.23;100252.25;5019265;28;45298;-68
2023/03/17 07:11:23;;;;;;;;;6.75;5.75;;;;;13.34;49.26;100241.69;5018971;28;45499;-68
2023/03/17 07:13:49;;;;;;;;;6.50;5.00;;;;;13.33;49.19;100230.28;5019196;28;46111;-67
2023/03/17 07:16:15;;;;;;;;;7.00;6.75;;;;;13.35;49.17;100229.38;5018862;28;45439;-68
2023/03/17 07:18:42;;;;;;;;;9.75;7.75;;;;;13.36;49.56;100228.44;5019381;28;45345;-68
2023/03/17 07:21:08;;;;;;;;;7.00;5.25;;;;;13.36;49.32;100229.31;5018911;28;45255;-69
2023/03/17 07:23:33;;;;;;;;;6.00;5.50;;;;;13.36;49.28;100229.31;5018979;28;46139;-67
2023/03/17 07:25:59;;;;;;;;;5.00;5.00;;;;;13.36;49.40;100239.00;5018698;28;45447;-68
2023/03/17 07:28:24;;;;;;;;;5.75;4.00;;;;;13.39;49.52;100244.22;5019300;28;45389;-68
2023/03/17 07:30:50;;;;;;;;;2.50;2.50;;;;;13.38;49.18;100237.22;5018559;28;45338;-62
2023/03/17 07:33:19;;;;;;;;;4.75;4.75;;;;;13.39;49.48;100241.59;5018947;28;45917;-68
2023/03/17 07:35:46;;;;;;;;;4.00;4.00;;;;;13.36;49.67;100239.88;5018663;28;45412;-69
2023/03/17 07:38:11;;;;;;;;;4.00;4.00;;;;;13.40;49.08;100252.09;5019076;28;45319;-69
2023/03/17 07:40:37;;;;;;;;;4.75;3.75;;;;;13.41;49.24;100248.53;5018625;28;45515;-69
2023/03/17 07:43:03;;;;;;;;;4.50;4.50;;;;;13.43;48.96;100251.13;5017640;28;47152;-70
2023/03/17 07:45:29;;;;;;;;;5.50;3.25;;;;;13.44;49.13;100245.78;5018459;28;45322;-69
2023/03/17 07:47:54;;;;;;;;;4.75;4.25;;;;;13.44;49.29;100237.00;5018656;28;45347;-70
2023/03/17 07:50:19;;;;;;;;;5.00;5.00;;;;;13.48;49.05;100247.41;5004682;28;45514;-71
2023/03/17 07:52:45;;;;;;;;;5.00;4.00;;;;;13.52;49.51;100249.94;5010998;28;45457;-69
2023/03/17 07:55:11;;;;;;;;;4.75;3.75;;;;;13.54;49.28;100253.41;5018427;28;45296;-71
2023/03/17 07:57:37;;;;;;;;;2.50;2.50;;;;;13.56;49.24;100252.44;5017937;28;45231;-75
2023/03/17 08:00:08;;;;;;;;;6.00;3.00;;;;;13.59;49.18;100239.09;5013291;28;45564;-76
2023/03/17 08:02:34;;;;;;;;;5.50;4.75;;;;;13.62;49.12;100246.94;5029936;28;46860;-75
2023/03/17 08:04:59;;;;;;;;;3.25;3.25;;;;;13.67;49.00;100232.72;5003769;28;45330;-75
2023/03/17 08:07:25;;;;;;;;;3.75;3.00;;;;;13.70;48.91;100235.22;5018678;28;45326;-76
2023/03/17 08:09:51;;;;;;;;;5.25;3.75;;;;;13.75;48.86;100246.53;5016480;28;45671;-76
2023/03/17 08:12:17;;;;;;;;;5.00;4.00;;;;;13.76;49.24;100237.66;5018570;28;45235;-76
2023/03/17 08:14:42;;;;;;;;;3.50;2.50;;;;;13.85;48.94;100244.38;5018170;28;45231;-77
2023/03/17 08:17:07;;;;;;;;;4.00;2.75;;;;;13.89;48.81;100244.22;5018690;28;45202;-76
2023/03/17 08:19:33;;;;;;;;;3.00;3.00;;;;;13.94;49.08;100250.22;5018440;28;45540;-77
2023/03/17 08:21:58;;;;;;;;;5.25;3.25;;;;;14.00;49.12;100245.63;5018154;28;45226;-77
2023/03/17 08:24:25;;;;;;;;;10.00;5.00;;;;;14.03;49.02;100243.72;5018206;28;45369;-77
2023/03/17 08:26:51;;;;;;;;;3.50;3.25;;;;;14.09;48.79;100251.44;5016503;28;45345;-78
2023/03/17 08:29:17;;;;;;;;;7.75;5.00;;;;;14.15;48.92;100250.38;5018052;28;45283;-78
2023/03/17 08:31:42;;;;;;;;;3.50;3.00;;;;;14.19;49.00;100229.94;5018028;28;45345;-78
2023/03/17 08:34:08;;;;;;;;;5.75;5.00;;;;;14.25;49.05;100229.72;4998512;28;45323;-77
2023/03/17 08:36:34;;;;;;;;;3.00;2.00;;;;;14.32;48.86;100233.00;5026909;28;45447;-77
2023/03/17 08:38:59;;;;;;;;;4.00;4.00;;;;;14.39;48.62;100237.13;5017992;28;45318;-77
2023/03/17 08:41:27;;;;;;;;;3.75;3.50;;;;;14.45;48.73;100232.50;5018232;28;46237;-77
2023/03/17 08:43:53;;;;;;;;;9.75;4.25;;;;;14.52;48.66;100230.47;5018108;28;45234;-78
2023/03/17 08:46:28;;;;;;;;;5.00;4.00;;;;;14.58;49.18;100230.22;5018020;28;45293;-77
2023/03/17 08:48:55;;;;;;;;;4.25;4.25;;;;;14.65;49.14;100235.31;5015711;28;45489;-78
2023/03/17 08:51:21;;;;;;;;;4.75;3.00;;;;;14.71;48.73;100237.72;5000698;27;45482;-78
2023/03/17 08:53:47;;;;;;;;;2.50;2.50;;;;;14.75;49.13;100218.16;5017929;28;45317;-77
2023/03/17 08:56:13;;;;;;;;;3.25;3.25;;;;;14.82;48.83;100232.84;5016685;28;45343;-77
2023/03/17 08:58:41;;;;;;;;;4.75;3.25;;;;;14.88;48.51;100234.38;5050092;28;45420;-77
2023/03/17 09:01:08;;;;;;;;;3.50;3.50;;;;;14.92;48.52;100244.78;5019716;28;47903;-77
2023/03/17 09:03:34;;;;;;;;;1.50;1.50;;;;;14.98;48.46;100232.22;5018322;28;45245;-78
2023/03/17 09:06:01;;;;;;;;;3.50;3.00;;;;;15.04;48.52;100234.63;5017938;28;45331;-77
2023/03/17 09:08:26;;;;;;;;;6.25;4.50;;;;;15.07;48.97;100216.84;5017686;28;45472;-75
2023/03/17 09:10:53;;;;;;;;;3.25;3.25;;;;;15.14;48.87;100213.94;5015811;28;49660;-77
2023/03/17 09:13:18;;;;;;;;;3.25;3.25;;;;;15.19;48.56;100234.00;5033244;28;45326;-78
2023/03/17 09:15:44;;;;;;;;;6.25;3.75;;;;;15.26;48.81;100232.81;5017525;28;45538;-78
2023/03/17 09:18:10;;;;;;;;;3.00;3.00;;;;;15.32;48.79;100236.13;5050127;28;45292;-78
2023/03/17 09:20:36;;;;;;;;;4.25;2.75;;;;;15.35;48.61;100230.72;5017349;28;46340;-78
2023/03/17 09:23:06;;;;;;;;;1.75;1.75;;;;;15.46;48.44;100224.94;5017839;28;45210;-78
2023/03/17 09:25:33;;;;;;;;;6.00;4.00;;;;;15.52;48.28;100216.75;5019371;27;45430;-78
2023/03/17 09:27:59;;;;;;;;;2.00;2.00;;;;;15.61;48.67;100213.72;5017874;28;45455;-79
2023/03/17 09:30:25;;;;;;;;;3.00;2.50;;;;;15.70;48.72;100215.09;5015944;28;47169;-79
2023/03/17 09:32:51;;;;;;;;;3.50;3.25;;;;;15.80;48.41;100216.41;5017777;28;45299;-78
2023/03/17 09:35:17;;;;;;;;;3.75;3.75;;;;;15.88;48.55;100206.34;5017419;28;45246;-78
2023/03/17 09:37:42;;;;;;;;;2.50;2.50;;;;;16.03;48.38;100198.66;5017681;28;45527;-78
2023/03/17 09:40:14;;;;;;;;;4.00;3.00;;;;;16.15;48.30;100206.06;5017132;28;47191;-78
2023/03/17 09:42:54;;;;;;;;;6.25;3.25;;;;;16.33;48.41;100217.59;5017390;28;45328;-78
2023/03/17 09:45:30;;;;;;;;;3.00;2.25;;;;;16.50;48.32;100213.28;5017060;28;45408;-78
2023/03/17 09:48:24;;;;;;;;;2.00;2.00;;;;;16.67;48.50;100213.34;5017176;28;45406;-77
2023/03/17 09:51:07;;;;;;;;;1.00;1.00;;;;;16.87;48.70;100207.06;4999164;28;46150;-77
2023/03/17 09:53:39;;;;;;;;;3.00;2.00;;;;;17.02;48.50;100207.28;5014553;28;45532;-79
2023/03/17 09:56:11;;;;;;;;;6.00;3.25;;;;;17.20;48.35;100211.66;5017442;28;45387;-78
2023/03/17 09:58:38;;;;;;;;;3.25;2.50;;;;;17.35;48.48;100210.03;5015854;28;45452;-78
2023/03/17 10:01:04;;;;;;;;;5.00;3.00;;;;;17.50;48.33;100196.91;5018598;28;48400;-78
2023/03/17 10:03:31;;;;;;;;;3.50;2.00;;;;;17.63;48.15;100200.63;5004600;28;45335;-79
2023/03/17 10:06:21;;;;;;;;;4.00;4.00;;;;;17.79;48.43;100206.00;5016933;28;45167;-78
2023/03/17 10:09:18;;;;;;;;;3.00;2.25;;;;;17.90;48.36;100197.47;5017112;28;45372;-78
2023/03/17 10:11:49;;;;;;;;;6.00;3.00;;;;;18.00;48.00;100216.50;5012588;28;45493;-78
2023/03/17 10:14:48;;;;;;;;;3.75;3.00;;;;;18.11;48.26;100219.44;5017279;28;45373;-77
2023/03/17 10:17:20;;;;;;;;;2.75;2.75;;;;;18.18;48.10;100211.97;5008497;28;45477;-78
2023/03/17 10:20:12;;;;;;;;;6.00;4.00;;;;;18.26;48.20;100214.19;5017126;28;45298;-77
2023/03/17 10:22:53;;;;;;;;;2.75;2.75;;;;;18.33;47.71;100227.06;5019879;28;45394;-78
2023/03/17 10:25:20;;;;;;;;;3.25;3.25;;;;;18.38;47.48;100234.81;5020007;28;45311;-78
2023/03/17 10:27:54;;;;;;;;;4.50;2.50;;;;;18.44;47.73;100234.47;5018461;28;45267;-78
2023/03/17 10:30:22;;;;;;;;;4.00;3.25;;;;;18.48;47.36;100235.19;5018288;28;45414;-78
2023/03/17 10:32:48;;;;;;;;;5.00;3.25;;;;;18.51;47.81;100238.53;5019571;28;46247;-78
2023/03/17 10:35:15;;;;;;;;;3.75;3.75;;;;;18.54;47.65;100236.63;5018294;28;45264;-78
2023/03/17 10:37:41;;;;;;;;;3.00;3.00;;;;;18.58;47.54;100230.19;5019895;28;45287;-78
2023/03/17 10:40:19;;;;;;;;;5.25;4.25;;;;;18.57;47.22;100221.34;5019512;28;45529;-78
2023/03/17 10:42:52;;;;;;;;;4.75;3.50;;;;;18.60;46.87;100236.28;5019346;28;46940;-78
2023/03/17 10:45:27;;;;;;;;;3.50;3.50;;;;;18.61;46.75;100235.34;5034575;28;45333;-77
2023/03/17 10:47:56;;;;;;;;;4.00;4.00;;;;;18.60;46.86;100213.22;5019705;28;45393;-78
2023/03/17 10:50:24;;;;;;;;;2.00;2.00;;;;;18.62;47.14;100231.75;5005169;28;45169;-78
2023/03/17 10:53:06;;;;;;;;;1.25;1.25;;;;;18.62;47.26;100213.13;5012364;28;46461;-78
2023/03/17 10:55:38;;;;;;;;;4.50;2.25;;;;;18.59;47.09;100199.97;5018179;28;45268;-78
2023/03/17 10:58:17;;;;;;;;;2.50;2.50;;;;;18.56;46.80;100222.28;5019729;28;45476;-77
2023/03/17 11:01:04;;;;;;;;;3.75;2.00;;;;;18.52;46.69;100224.25;5014715;28;45537;-78
2023/03/17 11:03:33;;;;;;;;;5.75;4.25;;;;;18.46;46.45;100227.25;4993901;28;45340;-78
2023/03/17 11:06:07;;;;;;;;;2.50;2.50;;;;;18.48;46.61;100219.22;5017825;28;45951;-78
2023/03/17 11:08:38;;;;;;;;;4.00;4.00;;;;;18.46;47.00;100221.94;5019229;28;45328;-78
2023/03/17 11:11:07;;;;;;;;;5.75;5.00;;;;;18.41;46.62;100239.09;5018962;28;45230;-78
2023/03/17 11:13:32;;;;;;;;;4.00;4.00;;;;;18.38;46.56;100216.19;5019402;28;46297;-78
2023/03/17 11:16:21;;;;;;;;;4.25;2.75;;;;;18.33;46.59;100228.91;5018764;28;45410;-77
2023/03/17 11:18:50;;;;;;;;;3.00;3.00;;;;;18.31;46.78;100244.06;5018000;28;45337;-78
2023/03/17 11:21:25;;;;;;;;;1.00;1.00;;;;;18.28;46.42;100254.88;5018797;28;45328;-77